This site, now in its 15th season, is a labour of love and fun from one of Ottawa's most avid time trialists and number crunchers. It adheres to and is permitted by the laws of Canada, promotes the objectives of every bicycle club whose results are shown, and is donated free of charge by myself for your enjoyment and usage. If you would like results from series you ride in to be shown here, give me (celia@drmath.ca) a shout!


Index Page
ATT OTT WTT AATT CFCTT VVVTT
Help resultformat:
Case-sensitive

OBC Open TT Series - 2010-Jun-24 - 15km (Rockliffe Pkwy) (EvtFactor = 0.9333)

Weather (18:00): Partly Cloudy. Temp.: 22C, Humidity: 73%, Dew Point: 17C, Wind: WNW 22km/h, Pressure: 100.8kPa, Vis: 24km, Humidex: 27.
Weather (19:00): Partly Cloudy. Temp.: 21C, Humidity: 62%, Dew Point: 14C, Wind: WNW 17km/h, Pressure: 100.9kPa, Vis: 24km, Humidex: *.
Weather (20:00): Mainly Sunny. Temp.: 20C, Humidity: 65%, Dew Point: 13C, Wind: NW 17km/h, Pressure: 101.0kPa, Vis: 24km, Humidex: *.

Send photos with description (when/where/what) of yourself on or off of bike to celia@drmath.ca

Michael Nash was fastest tonight at 19:00 even, while Sue Schlatter did a remarkable PB of 20:08 - just 2 seconds off of the women's course record of 20:06 set by Meshy Holt on 2002-Jul-18. Looking at the top 25 gender performances, we see that Sue currently holds 19 of the fastest 25 women's 15km times, whereas there's more competition in the men for Aaron Fillion with Warren MacDonald and Michael Nash both riding sub 19. Wouldn't it be great if we get a perfect night in which Sue breaks 20 minutes (the 45km/h mark) and Aaron breaks the 50km/h mark of 18:00? By the way, even more impressive concerning Sue Schlatter's time is the fact Meshy Holt was 21 years younger when she set the course record. Here are the 25 best gender times adjusted for the OBC age handicapping, and even more interesting, here is what we get if we handicap with respect to the VTTA age/gender standards (mathematically adjusted for speed). Here, Sue's performance tonight would be rated at just over 50km/h - that is, she would rate even a little faster than Aaron Fillion! The British admit that their standards are a little generous in terms of the aging, but not generous enough for gender... Also noteworthy in the category performances was Jeremie Lacasse's 23:40 which is the best male Mimime time so far in 2010. There is excellent competition in this category, and we'll be interested to see if Andrew Lattimore's MIM 15 km record of 23:03 is broken this year. By the way, Jeremie, who rode tonight on his father's road bike, also did phenomenally well in the Preston Street Criterium last weekend. Though he was riding with much older Senior 3/4, Junior and U17 cyclists, he finished in the pack getting 13th place overall, just 20 seconds behind the winner. Congratulations! Concerning the rest of tonight's competitors, 28 riders improved upon their previous 2010 OTT best 15km, while 17 improved upon their previous 15km database best. Wow, look at the improvement for David Gazsi, who not only went under 20 minutes for the first time, but he did so by more than 30 seconds. Great riding with lots more improvements expected - it's still only June!

These results were first posted on the OBC site circa 11:30 on 2010-Jun-25 and are available here for your added pleasure and analysis.

(Note that I'd gladly type in the results each time, getting the results up within a few of hours of the event, as I did for the WTT series for the decade beginning in 1998, and for the OTT series from 1999-2002 and again in 2006. Regardless, I will continue to donate this statistical time trial result service to you, even though doing so has, surprisingly, resulted in my EXPULSION from the OBC ! I guess I must at least thank the OBC executive for taking on the grunt work and leaving me to do just the more interesting side of my result service, but I do want to make it absolutely clear that I would gladly help the OBC Board input the results, lest complaints about me just lazily sucking in the results surface! The choice is theirs. If they want the help, I'm here and will do it - even if I remain expelled! Such is my level of dedication to public service and disinterest in private politics.)

 
 

BESTS?
 
1 Nash, Michael  OBC/RWR 19:00 47.368 1/85 VBM 1/20 1.1316
2 Gazsi, David ULT 19:27 46.272 2/85 VBM 2/20  
3 Amos, Ron  OBC/RWR 19:28 46.233 3/85 VBM 3/20 0.9872
4 Gee, Jon OBC 19:33 46.036 4/85 VBM 4/20 1.0388
5 Rendall, Glen  RWR 20:05 44.813 5/85 VBM 5/20 0.9729
6 Schlatter, Sue  SRC 20:08 44.702 6/85 VBF 1/7 1.0125
7 Tsilemos, Jim RWR 20:18 44.335 7/85 VBM 6/20 1.0099
8 Hamilton, Peter OBC 20:19 44.299 8/85 VBM 7/20 0.9398
9 Sudac, Rick  OBC/RWR 20:22 44.190 9/85 VDM 1/6 0.9757
10 Ferguson, James OBC 20:38 43.619 10/85 VCM 1/21 0.9570
11 Diaz, Rodrigo  OBC/EUR 20:46 43.339 11/85 VAM 1/8 0.9690
12 Large, John WQW 20:59 42.891 12/85 VCM 2/21  
13 Mullington, Chris WQW 21:04 42.722 13/85 VCM 3/21 1.0581
14 Gerrard, David  OBC 21:09 42.553 14/85 VBM 8/20 1.0000
15 Brazeau, Marc OBC 21:10 42.520 15/85 VAM 2/8 1.0456
16 Black, Chris  RWR 21:12 42.453 16/85 VCM 4/21 1.0095
17 Cameron, Allen  OBC/RWR 21:13 42.419 17/85 VCM 5/21 1.0189
18 Trafford, Brian OBC 21:14 42.386 18/85 JUM 1/1 1.0047
19 Christie, Greg  OBC/RWR 21:17 42.287 19/85 VCM 6/21 0.9744
20 McKay, Allison  OBC/RDO 21:21 42.155 20/85 VBF 2/7 1.0118
21 Zappe, Erich RWR 21:23 42.089 21/85 VCM 7/21 0.9271
22 Buzzell, Andrew OBC 21:32 41.796 22/85 VAM 3/8  
Matte, Sophie  SRC 21:32 41.796 22/85 VAF 1/7 0.9770
24 Chedore, Paul CLG 21:35 41.699 24/85 VBM 9/20 0.9954
25 Breton, Bernard OBC 21:36 41.667 25/85 VBM 10/20 0.9679
Gagnon, Alexandre & Gagnon, Jules OBC 21:36 41.667 25/85 TTT 1/1  
27 Schuck, Peter  OBC 21:39 41.570 27/85 VCM 8/21 0.9953
28 Farish, Neil  OBC/RWR 21:50 41.221 28/85 VCM 9/21 0.9863
29 Robitaille, Brian  OBC 22:10 40.602 29/85 VBM 11/20 1.0319
30 Brunet, Chris CYC 22:16 40.419 30/85 SEM 1/2 1.0067
McKay, Andrea  OBC 22:16 40.419 30/85 VBF 3/7 1.0294
32 Posthuma, Hans  OBC 22:21 40.268 32/85 VCM 10/21 0.9646
Till, Michael WQW 22:21 40.268 32/85 VCM 10/21 0.9668
34 Hess, Detlef OBC 22:24 40.179 34/85 VCM 12/21 0.9757
35 Padilla, Alberto EUR 22:27 40.089 35/85 VCM 13/21 0.9823
36 Kruger, Andrew  CYC 22:31 39.970 36/85 VAM 4/8 0.9243
37 Locke, Peter WQW 22:33 39.911 37/85 VCM 14/21 0.9845
38 Morris, Steve ULT 22:38 39.764 38/85 VBM 12/20 0.9331
39 Dorego, Jean-Louis OBC 22:40 39.706 39/85 VCM 15/21 1.0044
40 Thompson, William OBC 22:41 39.677 40/85 VBM 13/20 0.9782
41 Somogyi, Michel OBC 22:44 39.589 41/85 VAM 5/8 0.9912
42 Wolfe, Yariv OBC 23:04 39.017 42/85 VBM 14/20 0.7929
43 Burge, Larry  OBC 23:06 38.961 43/85 VBM 15/20 0.9849
44 Boulanger, Gaetan  --- 23:08 38.905 44/85 VDM 2/6 0.9448
Moerman, Bram  OBC 23:08 38.905 44/85 VDM 2/6 0.9366
46 Wong, Adrian OBC 23:10 38.849 46/85 VAM 6/8 1.0752
47 Hicks, Bob  OBC 23:12 38.793 47/85 VDM 4/6 1.0260
48 Blais, Bob OBC 23:23 38.489 48/85 VCM 16/21 0.9270
49 Bisson, Jonathan OBC 23:25 38.434 49/85 SEM 2/2 0.9353
50 Wakefield, Sean RWR 23:30 38.298 50/85 VBM 16/20 1.0432
51 Lacasse, Jeremie  OBC 23:40 38.028 51/85 MIM 1/1 1.0127
52 Imbrogno, Giorgio  OBC 23:47 37.842 52/85 VDM 5/6 1.0298
53 Marleau, Dianne  OBC/RWR 23:49 37.789 53/85 VBF 4/7 0.9384
54 Bourgon, Veronik  OBC 23:57 37.578 54/85 SEF 1/1 1.1080
55 De Haitre, Vincent OBC 24:03 37.422 55/85 CAM 1/1 0.8727
Simard, Martin OBC 24:03 37.422 55/85 VCM 17/21 1.0167
57 Gustyn, Andrew OBC 24:10 37.241 57/85 VBM 17/20 1.0166
Ingham, Alison  OBC/RWR 24:10 37.241 57/85 VBF 5/7 0.9692
59 Hind, Terry OBC/EUR 24:15 37.113 59/85 VDM 6/6  
60 Deavy, Carol  OBC 24:16 37.088 60/85 VBF 6/7 0.9434
61 Nesdoly, Nina  OBC 24:20 36.986 61/85 JUF 1/2 0.9220
62 Déry, Nicolas  OBC 24:22 36.936 62/85 VAM 7/8 0.9776
63 Dionne, Suzanne  OBC 24:42 36.437 63/85 VCF 1/5 0.9779
64 Leclair, Gilles OBC 24:52 36.193 64/85 VCM 18/21 1.1629
65 Lai, Stephen OBC 24:54 36.145 65/85 VBM 18/20 1.1897
66 McInnis, Celia  ABC/CYF 24:56 36.096 66/85 VCF 2/5 0.9840
67 Janusauskas, Vytas  OBC 24:59 36.024 67/85 VCM 19/21 0.9644
68 Darville, Courtnay  OBC/CYF 25:10 35.762 68/85 VAF 2/7 0.8281
69 Higgs, Sharolyn  OBC 25:25 35.410 69/85 VAF 3/7 1.1228
70 Rees, Stephanie  OBC 25:29 35.317 70/85 VAF 4/7 1.0000
71 Budd, Daniel RWR 25:33 35.225 71/85 VBM 19/20 1.0477
72 Bean, Camille OBC 25:48 34.884 72/85 JUF 2/2 0.9044
73 Bourque, Timothy OBC 25:58 34.660 73/85 VAM 8/8 1.0449
74 McLaughlin, Brian OBC 26:21 34.156 74/85 VCM 20/21 0.9224
75 Georges, Patrick OBC 27:30 32.727 75/85 VBM 20/20  
76 Ullyatt, Hazel OBC/CYF 27:34 32.648 76/85 VCF 3/5  
77 Chiesa, Maria OBC 27:45 32.432 77/85 VAF 5/7 0.8708
78 St. John, Ronald OBC 27:57 32.200 78/85 VEM 1/1  
79 Damen, Lynda  OBC 27:58 32.181 79/85 VCF 4/5 0.9456
80 Payne, Michelle OBC 28:02 32.105 80/85 VBF 7/7 0.8935
81 Johnson, Laura  OBC/CYF 28:11 31.934 81/85 VAF 6/7 0.9240
82 Boudreau, Lucie  OBC 28:16 31.840 82/85 VCF 5/5 0.8927
83 Ajersch, Mary  OBC 29:43 30.286 83/85 VEF 1/1  
84 Byskov, Karen  OBC 33:19 27.014 84/85 VAF 7/7 1.0365
85 Williams, Geoffrey OBC DNF   85/85 VCM 21/21  
 
Average Speed of all of the above 84 finishes (1260km in 32:43:48):38.497
>>>Average of the Average Speeds for these 84 finishes38.940<<<
 

The number of data records shown above is 85
The server processing of your query took: 3 wallclock secs ( 0.10 usr + 0.00 sys = 0.10 CPU)

Thanks to our Helpers: Brian Armstrong, Avery Burdett, Neil Farish, Gunter Hauschildt, Detlef Hess, Colleen Janusauskas, Alex McKnight, David Munden.

     


Apr 2 (Good Friday)
May 4 (10km) May 6 May 11 (10km) May 13 May 18 May 18 (10km) May 20 May 25 May 25 (10km) May 27 May 30 (40km) May 31 (10km)
Jun 1 Jun 1 Jun 3 Jun 8 Jun 8 Jun 10 Jun 14 (10km) Jun 15 Jun 15 Jun 17 Jun 22 (rained out) Jun 22
  Jun 24  
Jun 28 (10km) Jun 29 Jun 29
Jul 4 (40km) Jul 6 Jul 6 Jul 8 Jul 12 Jul 13 Jul 13 Jul 15 Jul 20 Jul 20 Jul 22 Jul 26 Jul 27 Jul 27 Jul 29
Aug 3 ((cancelled)) Aug 3 Aug 5 Aug 8 (40km) Aug 10 Aug 10 Aug 12 Aug 15 (40km) Aug 17 Aug 17 Aug 19 Aug 23 Aug 24 Aug 24 Aug 26 Aug 31 Aug 31 (Invitational)
Sep 2 Sep 7 Sep 9 Sep 12 (40km) Sep 14 Sep 19 (40km) Sep 21 Sep 28

OTT Rankings
Best       Best by category
WTT Rankings for All Participants
4 Best Speeds (≥3 15km, ≤1 10km)     4 Best Speeds (≥3 15km, ≤1 10km) by category
OTT Best Three 15km Rankings
Overall     by category     age-Hcap Female   age-Hcap Male
[OWA]TT BAR Ranking
Overall     by category     Rider "Consistency-Graph"
ABC BAR Ranking
Overall     by category     Rider "Consistency-Graph"
Other years
TT Calculator All TT People All TT events
ABC Home VVV Home
CKAP GOLD MEDAL
Other Links

Note: OTT data from 2003 through 2006-Apr-14 and 2007-Apr-06-? and WTT from 2008-? is taken from the official OBC site.

Please send your comments and suggestions to: Celia McInnis
Copyright © 1998-2011 Celia McInnis. All rights reserved. Links are welcomed.